createdAt,value
2019-01-26T00:01:19.379Z,57.95
2019-01-26T00:03:49.017Z,57.42
2019-01-26T00:06:18.725Z,54.60
2019-01-26T00:08:47.925Z,53.72
2019-01-26T00:11:15.765Z,57.03
2019-01-26T00:13:46.478Z,49.63
2019-01-26T00:16:20.972Z,46.72
2019-01-26T00:18:44.345Z,39.95
2019-01-26T00:21:14.078Z,41.95
2019-01-26T00:23:44.787Z,48.87
2019-01-26T00:26:14.298Z,39.38
2019-01-26T00:28:44.755Z,39.97
2019-01-26T00:31:12.814Z,45.12
2019-01-26T00:33:43.426Z,39.72
2019-01-26T00:36:12.960Z,36.67
2019-01-26T00:38:42.780Z,34.35
2019-01-26T00:41:13.401Z,46.60
2019-01-26T00:43:43.632Z,38.58
2019-01-26T00:46:13.347Z,38.15
2019-01-26T00:48:43.125Z,37.15
2019-01-26T00:51:11.766Z,32.78
2019-01-26T00:53:42.362Z,36.90
2019-01-26T00:56:11.061Z,32.25
2019-01-26T00:58:41.322Z,36.65
2019-01-26T01:01:11.027Z,49.67
2019-01-26T01:03:42.557Z,43.28
2019-01-26T01:06:11.814Z,62.90
2019-01-26T01:08:42.018Z,42.60
2019-01-26T01:11:10.123Z,52.28
2019-01-26T01:13:39.929Z,55.50
2019-01-26T01:16:09.147Z,41.60
2019-01-26T01:18:40.773Z,42.90
2019-01-26T01:21:13.026Z,42.30
2019-01-26T01:23:42.763Z,38.47
2019-01-26T01:26:11.939Z,41.17
2019-01-26T01:28:40.386Z,41.13
2019-01-26T01:31:09.968Z,30.70
2019-01-26T01:33:40.126Z,53.00
2019-01-26T01:36:11.028Z,38.08
2019-01-26T01:38:39.821Z,36.15
2019-01-26T01:41:10.625Z,42.47
2019-01-26T01:43:41.278Z,38.80
2019-01-26T01:46:09.464Z,39.63
2019-01-26T01:48:38.134Z,40.80
2019-01-26T01:51:08.777Z,45.70
2019-01-26T01:53:39.537Z,34.33
2019-01-26T01:56:08.703Z,34.55
2019-01-26T01:58:39.010Z,38.80
2019-01-26T02:01:08.896Z,33.72
2019-01-26T02:03:37.525Z,31.73
2019-01-26T02:06:10.757Z,32.35
2019-01-26T02:08:41.660Z,31.27
2019-01-26T02:11:42.292Z,23.80
2019-01-26T02:14:14.479Z,34.17
2019-01-26T02:16:50.244Z,36.90
2019-01-26T02:19:19.379Z,36.42
2019-01-26T02:21:53.211Z,43.45
2019-01-26T02:24:24.079Z,36.05
2019-01-26T02:26:55.034Z,34.65
2019-01-26T02:29:24.558Z,33.42
2019-01-26T02:31:54.240Z,30.15
2019-01-26T02:34:24.426Z,31.73
2019-01-26T02:36:54.314Z,42.65
2019-01-26T02:39:25.097Z,32.78
2019-01-26T02:41:56.241Z,30.77
2019-01-26T02:44:24.896Z,38.47
2019-01-26T02:46:58.127Z,41.50
2019-01-26T02:49:23.904Z,38.88
2019-01-26T02:51:51.457Z,39.50
2019-01-26T02:54:22.599Z,42.67
2019-01-26T02:56:52.356Z,40.97
2019-01-26T02:59:21.295Z,39.42
2019-01-26T03:01:52.347Z,49.17
2019-01-26T03:04:21.659Z,41.15
2019-01-26T03:06:51.055Z,42.17
2019-01-26T03:09:20.352Z,40.97
2019-01-26T03:11:51.900Z,44.05
2019-01-26T03:14:22.691Z,38.50
2019-01-26T03:16:51.473Z,48.20
2019-01-26T03:19:19.616Z,39.47
2019-01-26T03:21:50.506Z,47.80
2019-01-26T03:24:20.174Z,37.95
2019-01-26T03:26:48.871Z,40.70
2019-01-26T03:29:21.423Z,36.05
2019-01-26T03:31:51.092Z,31.30
2019-01-26T03:34:20.306Z,34.55
2019-01-26T03:36:49.216Z,40.10
2019-01-26T03:39:17.906Z,34.33
2019-01-26T03:41:46.875Z,36.42
2019-01-26T03:44:17.088Z,39.58
2019-01-26T03:46:46.665Z,35.75
2019-01-26T03:49:15.294Z,36.63
2019-01-26T03:51:45.016Z,31.27
2019-01-26T03:54:14.278Z,29.52
2019-01-26T03:56:42.507Z,30.58
2019-01-26T03:59:12.891Z,30.92
2019-01-26T04:01:42.695Z,28.80
2019-01-26T04:04:11.908Z,32.97
2019-01-26T04:09:54.455Z,26.55
2019-01-26T04:12:23.625Z,30.30
2019-01-26T04:14:54.099Z,27.48
2019-01-26T04:17:22.281Z,29.02
2019-01-26T04:19:53.231Z,28.87
2019-01-26T04:22:23.355Z,27.70
2019-01-26T04:24:52.718Z,24.30
2019-01-26T04:27:22.462Z,27.65
2019-01-26T04:29:51.658Z,25.55
2019-01-26T04:32:22.295Z,27.20
2019-01-26T04:34:52.937Z,28.60
2019-01-26T04:37:24.423Z,26.65
2019-01-26T04:39:53.010Z,31.87
2019-01-26T04:42:24.083Z,35.95
2019-01-26T04:44:53.562Z,31.20
2019-01-26T04:47:30.511Z,21.87
2019-01-26T04:49:51.424Z,19.77
2019-01-26T04:52:21.142Z,23.70
2019-01-26T04:54:53.666Z,19.55
2019-01-26T04:57:25.279Z,19.90
2019-01-26T04:59:58.025Z,20.30
2019-01-26T05:02:28.039Z,21.95
2019-01-26T05:04:59.867Z,18.65
2019-01-26T05:07:28.092Z,21.00
2019-01-26T05:09:56.998Z,22.33
2019-01-26T05:12:28.074Z,22.67
2019-01-26T05:14:58.240Z,30.15
2019-01-26T05:17:28.294Z,21.40
2019-01-26T05:19:57.914Z,24.35
2019-01-26T05:22:26.078Z,23.73
2019-01-26T05:24:55.234Z,18.45
2019-01-26T05:27:25.010Z,21.37
2019-01-26T05:29:54.360Z,25.62
2019-01-26T05:32:23.895Z,23.35
2019-01-26T05:34:53.644Z,25.52
2019-01-26T05:37:23.010Z,20.15
2019-01-26T05:39:50.598Z,20.90
2019-01-26T05:42:20.293Z,26.35
2019-01-26T05:44:50.147Z,24.10
2019-01-26T05:47:19.673Z,22.85
2019-01-26T05:49:48.253Z,30.60
2019-01-26T05:52:18.903Z,20.12
2019-01-26T05:54:48.548Z,19.20
2019-01-26T05:57:16.711Z,25.17
2019-01-26T05:59:44.900Z,21.58
2019-01-26T06:02:13.016Z,29.58
2019-01-26T06:04:45.704Z,26.90
2019-01-26T06:07:14.380Z,26.33
2019-01-26T06:09:43.190Z,27.85
2019-01-26T06:12:12.988Z,24.55
2019-01-26T06:14:42.676Z,30.95
2019-01-26T06:17:11.947Z,23.65
2019-01-26T06:19:40.625Z,22.77
2019-01-26T06:22:11.392Z,23.55
2019-01-26T06:24:40.040Z,25.27
2019-01-26T06:27:09.912Z,23.25
2019-01-26T06:29:38.010Z,24.60
2019-01-26T06:32:06.052Z,23.67
2019-01-26T06:34:37.661Z,21.98
2019-01-26T06:37:06.883Z,24.10
2019-01-26T06:39:35.611Z,26.77
2019-01-26T06:42:05.013Z,29.40
2019-01-26T06:44:33.238Z,20.88
2019-01-26T06:47:01.156Z,27.77
2019-01-26T06:49:31.925Z,33.13
2019-01-26T06:52:00.767Z,28.52
2019-01-26T06:54:29.626Z,25.42
2019-01-26T06:56:57.732Z,25.37
2019-01-26T06:59:26.139Z,23.75
2019-01-26T07:01:55.004Z,30.08
2019-01-26T07:04:41.982Z,25.23
2019-01-26T07:07:14.073Z,29.40
2019-01-26T07:09:43.384Z,20.70
2019-01-26T07:12:11.005Z,22.20
2019-01-26T07:14:40.321Z,23.15
2019-01-26T07:17:09.006Z,23.92
2019-01-26T07:19:37.960Z,30.58
2019-01-26T07:22:07.308Z,23.85
2019-01-26T07:24:37.470Z,26.77
2019-01-26T07:27:06.207Z,28.20
2019-01-26T07:29:36.389Z,25.05
2019-01-26T07:32:06.587Z,26.33
2019-01-26T07:34:37.382Z,26.25
2019-01-26T07:37:08.146Z,27.27
2019-01-26T07:39:36.592Z,27.70
2019-01-26T07:42:06.145Z,21.10
2019-01-26T07:44:37.182Z,27.13
2019-01-26T07:47:07.232Z,23.73
2019-01-26T07:49:37.517Z,28.83
2019-01-26T07:52:07.089Z,23.45
2019-01-26T07:54:36.778Z,27.17
2019-01-26T07:57:08.965Z,24.77
2019-01-26T07:59:37.274Z,31.33
2019-01-26T08:02:06.947Z,31.87
2019-01-26T08:04:35.097Z,25.62
2019-01-26T08:07:03.510Z,27.70
2019-01-26T08:09:32.162Z,34.97
2019-01-26T08:12:02.108Z,28.30
2019-01-26T08:14:30.796Z,25.40
2019-01-26T08:17:00.345Z,25.92
2019-01-26T08:19:29.946Z,23.80
2019-01-26T08:21:59.594Z,21.30
2019-01-26T08:24:30.201Z,28.77
2019-01-26T08:26:58.711Z,21.70
2019-01-26T08:29:28.419Z,25.20
2019-01-26T08:31:58.782Z,22.80
2019-01-26T08:34:28.810Z,25.80
2019-01-26T08:36:57.526Z,21.05
2019-01-26T08:39:27.262Z,25.00
2019-01-26T08:41:55.670Z,17.55
2019-01-26T08:44:24.218Z,23.77
2019-01-26T08:46:53.341Z,24.42
2019-01-26T08:49:26.250Z,21.77
2019-01-26T08:51:56.382Z,23.42
2019-01-26T08:54:27.326Z,21.80
2019-01-26T08:56:57.190Z,25.48
2019-01-26T08:59:25.807Z,26.00
2019-01-26T09:02:04.847Z,27.37
2019-01-26T09:04:36.259Z,21.30
2019-01-26T09:07:07.656Z,24.73
2019-01-26T09:09:37.403Z,25.05
2019-01-26T09:12:07.104Z,23.87
2019-01-26T09:14:37.238Z,25.70
2019-01-26T09:17:07.212Z,28.50
2019-01-26T09:19:38.226Z,27.33
2019-01-26T09:22:04.555Z,31.40
2019-01-26T09:24:33.276Z,25.55
2019-01-26T09:27:01.349Z,27.27
2019-01-26T09:29:30.620Z,26.85
2019-01-26T09:32:01.359Z,25.00
2019-01-26T09:34:31.054Z,25.30
2019-01-26T09:37:01.717Z,21.92
2019-01-26T09:39:30.960Z,25.50
2019-01-26T09:41:59.670Z,20.98
2019-01-26T09:44:29.252Z,23.67
2019-01-26T09:46:59.100Z,27.13
2019-01-26T09:49:28.220Z,21.30
2019-01-26T09:51:57.267Z,19.70
2019-01-26T09:54:26.493Z,19.10
2019-01-26T09:56:55.910Z,22.52
2019-01-26T09:59:26.075Z,19.83
2019-01-26T10:01:54.906Z,22.60
2019-01-26T10:04:23.175Z,15.23
2019-01-26T10:06:51.875Z,23.62
2019-01-26T10:09:22.046Z,18.75
2019-01-26T10:11:51.371Z,21.62
2019-01-26T10:14:19.456Z,14.85
2019-01-26T10:16:49.073Z,19.15
2019-01-26T10:19:18.688Z,15.75
2019-01-26T10:21:48.431Z,13.38
2019-01-26T10:24:17.520Z,13.62
2019-01-26T10:26:48.218Z,14.25
2019-01-26T10:29:18.190Z,16.35
2019-01-26T10:31:49.003Z,18.67
2019-01-26T10:34:16.811Z,12.27
2019-01-26T10:36:59.953Z,13.70
2019-01-26T10:39:29.064Z,12.10
2019-01-26T10:42:22.705Z,12.90
2019-01-26T10:44:52.348Z,10.45
2019-01-26T10:47:21.982Z,16.20
2019-01-26T10:49:51.791Z,13.10
2019-01-26T10:52:21.648Z,17.35
2019-01-26T10:54:49.832Z,18.27
2019-01-26T10:57:18.945Z,16.10
2019-01-26T10:59:47.226Z,23.48
2019-01-26T11:02:16.091Z,20.37
2019-01-26T11:04:45.500Z,21.42
2019-01-26T11:07:15.801Z,18.50
2019-01-26T11:09:44.873Z,23.27
2019-01-26T11:12:15.218Z,23.42
2019-01-26T11:14:44.350Z,20.80
2019-01-26T11:17:13.128Z,19.10
2019-01-26T11:19:42.457Z,23.92
2019-01-26T11:22:11.639Z,18.58
2019-01-26T11:24:41.642Z,18.83
2019-01-26T11:27:11.868Z,23.92
2019-01-26T11:29:40.591Z,24.98
2019-01-26T11:32:09.840Z,18.55
2019-01-26T11:34:39.533Z,22.98
2019-01-26T11:37:09.719Z,21.10
2019-01-26T11:39:38.855Z,16.65
2019-01-26T11:42:08.518Z,15.85
2019-01-26T11:44:38.314Z,17.40
2019-01-26T11:47:11.673Z,16.25
2019-01-26T11:49:42.373Z,15.98
2019-01-26T11:52:12.289Z,13.57
2019-01-26T11:55:13.375Z,11.95
2019-01-26T11:57:41.861Z,12.55
2019-01-26T12:00:38.498Z,9.82
2019-01-26T12:03:13.350Z,12.13
2019-01-26T12:06:05.400Z,7.72
2019-01-26T12:08:34.537Z,7.20
2019-01-26T12:11:02.619Z,9.57
2019-01-26T12:13:32.552Z,8.93
2019-01-26T12:16:02.168Z,8.68
2019-01-26T12:18:32.734Z,5.95
2019-01-26T12:21:01.699Z,8.52
2019-01-26T12:23:29.525Z,8.23
2019-01-26T12:25:59.456Z,7.60
2019-01-26T12:28:29.065Z,9.90
2019-01-26T12:30:59.375Z,7.30
2019-01-26T12:33:27.989Z,6.65
2019-01-26T12:35:56.116Z,6.72
2019-01-26T12:38:25.004Z,5.53
2019-01-26T12:40:55.826Z,6.65
2019-01-26T12:43:26.518Z,7.07
2019-01-26T12:45:56.599Z,6.68
2019-01-26T12:48:25.201Z,5.90
2019-01-26T12:50:55.357Z,5.90
2019-01-26T12:53:25.526Z,4.25
2019-01-26T12:55:54.227Z,7.90
2019-01-26T12:58:22.968Z,6.37
2019-01-26T13:00:52.201Z,6.20
2019-01-26T13:03:21.852Z,4.93
2019-01-26T13:05:50.124Z,5.87
2019-01-26T13:08:18.403Z,4.82
2019-01-26T13:10:48.713Z,4.35
2019-01-26T13:13:19.324Z,3.42
2019-01-26T13:15:48.473Z,4.78
2019-01-26T13:18:16.594Z,3.40
2019-01-26T13:20:46.262Z,7.18
2019-01-26T13:23:16.313Z,6.60
2019-01-26T13:25:45.499Z,6.37
2019-01-26T13:28:16.488Z,3.30
2019-01-26T13:30:45.227Z,4.62
2019-01-26T13:33:13.928Z,4.60
2019-01-26T13:35:42.330Z,3.08
2019-01-26T13:38:11.032Z,4.05
2019-01-26T13:40:39.798Z,5.60
2019-01-26T13:43:08.939Z,3.22
2019-01-26T13:45:38.010Z,3.58
2019-01-26T13:48:08.505Z,3.00
2019-01-26T13:50:37.694Z,3.70
2019-01-26T13:53:06.792Z,3.75
2019-01-26T13:55:36.420Z,3.00
2019-01-26T13:58:06.250Z,5.10
2019-01-26T14:00:35.206Z,2.37
2019-01-26T14:03:05.356Z,2.80
2019-01-26T14:05:35.195Z,2.65
2019-01-26T14:08:06.013Z,4.43
2019-01-26T14:10:34.841Z,3.92
2019-01-26T14:13:02.748Z,2.22
2019-01-26T14:15:30.735Z,3.65
2019-01-26T14:17:58.671Z,7.90
2019-01-26T14:20:26.737Z,9.02
2019-01-26T14:22:55.055Z,3.20
2019-01-26T14:25:23.316Z,3.05
2019-01-26T14:27:51.480Z,2.62
2019-01-26T14:30:23.756Z,3.00
2019-01-26T14:32:53.433Z,4.15
2019-01-26T14:35:21.614Z,5.62
2019-01-26T14:37:53.279Z,5.93
2019-01-26T14:40:21.345Z,6.20
2019-01-26T14:42:54.539Z,5.53
2019-01-26T14:45:18.840Z,6.07
2019-01-26T14:47:48.387Z,7.35
2019-01-26T14:50:16.548Z,5.68
2019-01-26T14:52:45.256Z,5.45
2019-01-26T14:55:15.093Z,7.65
2019-01-26T14:57:44.386Z,5.45
2019-01-26T15:00:14.537Z,4.85
2019-01-26T15:02:42.604Z,7.20
2019-01-26T15:05:10.678Z,8.30
2019-01-26T15:07:39.412Z,10.35
2019-01-26T15:10:09.719Z,8.18
2019-01-26T15:12:38.969Z,8.57
2019-01-26T15:15:08.944Z,9.43
2019-01-26T15:17:37.866Z,7.57
2019-01-26T15:20:06.505Z,8.57
2019-01-26T15:22:34.990Z,8.55
2019-01-26T15:25:04.233Z,7.22
2019-01-26T15:27:32.545Z,6.53
2019-01-26T15:30:00.832Z,6.65
2019-01-26T15:32:30.064Z,6.40
2019-01-26T15:34:58.635Z,9.27
2019-01-26T15:37:26.554Z,8.00
2019-01-26T15:39:55.244Z,6.43
2019-01-26T15:42:23.444Z,7.55
2019-01-26T15:44:51.386Z,6.20
2019-01-26T15:47:19.471Z,9.20
2019-01-26T15:49:49.854Z,9.02
2019-01-26T15:52:19.110Z,7.50
2019-01-26T15:54:48.222Z,5.80
2019-01-26T15:57:16.748Z,6.60
2019-01-26T15:59:53.432Z,5.20
2019-01-26T16:02:16.415Z,6.03
2019-01-26T16:04:44.620Z,5.10
2019-01-26T16:07:14.583Z,6.53
2019-01-26T16:09:43.830Z,4.30
2019-01-26T16:12:12.895Z,4.75
2019-01-26T16:14:40.754Z,4.10
2019-01-26T16:17:08.591Z,3.70
2019-01-26T16:19:37.350Z,3.37
2019-01-26T16:22:05.467Z,3.35
2019-01-26T16:24:33.690Z,3.37
2019-01-26T16:27:01.923Z,4.43
2019-01-26T16:29:30.356Z,4.45
2019-01-26T16:31:59.074Z,3.45
2019-01-26T16:34:27.784Z,5.70
2019-01-26T16:36:56.042Z,5.28
2019-01-26T16:39:24.219Z,5.37
2019-01-26T16:41:52.395Z,3.47
2019-01-26T16:44:22.573Z,3.70
2019-01-26T16:46:53.254Z,4.57
2019-01-26T16:49:21.454Z,3.70
2019-01-26T16:51:51.232Z,4.47
2019-01-26T16:54:20.567Z,4.85
2019-01-26T16:56:50.364Z,4.43
2019-01-26T16:59:21.566Z,5.28
2019-01-26T17:01:52.247Z,4.75
2019-01-26T17:04:21.725Z,4.68
2019-01-26T17:06:53.459Z,6.15
2019-01-26T17:09:22.116Z,5.47
2019-01-26T17:11:52.737Z,5.43
2019-01-26T17:14:21.302Z,6.00
2019-01-26T17:16:49.965Z,6.37
2019-01-26T17:19:20.122Z,8.18
2019-01-26T17:21:49.063Z,6.80
2019-01-26T17:24:17.378Z,6.43
2019-01-26T17:26:45.536Z,7.68
2019-01-26T17:29:14.172Z,7.53
2019-01-26T17:31:44.273Z,7.03
2019-01-26T17:34:16.274Z,8.35
2019-01-26T17:36:45.822Z,9.13
2019-01-26T17:39:13.555Z,10.88
2019-01-26T17:41:42.879Z,10.13
2019-01-26T17:44:12.069Z,11.98
2019-01-26T17:46:41.154Z,12.25
2019-01-26T17:49:10.450Z,11.65
2019-01-26T17:51:39.569Z,12.95
2019-01-26T17:54:11.311Z,9.82
2019-01-26T17:56:40.960Z,14.82
2019-01-26T17:59:10.247Z,10.85
2019-01-26T18:01:38.143Z,11.10
2019-01-26T18:04:08.111Z,11.93
2019-01-26T18:06:36.264Z,10.60
2019-01-26T18:09:06.917Z,12.07
2019-01-26T18:11:34.695Z,11.88
2019-01-26T18:14:04.449Z,11.45
2019-01-26T18:16:34.988Z,11.57
2019-01-26T18:19:05.633Z,10.90
2019-01-26T18:21:37.499Z,12.37
2019-01-26T18:24:06.838Z,16.90
2019-01-26T18:26:36.822Z,11.00
2019-01-26T18:29:06.937Z,10.88
2019-01-26T18:31:37.226Z,12.37
2019-01-26T18:34:07.678Z,11.02
2019-01-26T18:36:36.994Z,9.93
2019-01-26T18:39:07.967Z,10.02
2019-01-26T18:41:40.542Z,10.57
2019-01-26T18:44:09.318Z,14.10
2019-01-26T18:46:37.540Z,10.68
2019-01-26T18:49:08.377Z,10.88
2019-01-26T18:51:38.777Z,10.68
2019-01-26T18:54:07.506Z,10.25
2019-01-26T18:56:36.888Z,9.60
2019-01-26T18:59:04.978Z,9.27
2019-01-26T19:01:35.203Z,11.00
2019-01-26T19:04:19.766Z,10.32
2019-01-26T19:06:49.690Z,8.98
2019-01-26T19:09:18.265Z,9.95
2019-01-26T19:11:47.131Z,10.55
2019-01-26T19:14:17.598Z,10.65
2019-01-26T19:16:48.188Z,9.65
2019-01-26T19:19:17.537Z,10.43
2019-01-26T19:21:47.670Z,10.50
2019-01-26T19:24:18.124Z,8.48
2019-01-26T19:26:46.786Z,9.40
2019-01-26T19:29:14.911Z,9.40
2019-01-26T19:31:44.226Z,10.25
2019-01-26T19:34:13.785Z,11.57
2019-01-26T19:36:41.911Z,9.85
2019-01-26T19:39:10.202Z,10.57
2019-01-26T19:41:39.421Z,11.25
2019-01-26T19:44:08.312Z,9.18
2019-01-26T19:46:37.515Z,8.82
2019-01-26T19:49:06.664Z,9.52
2019-01-26T19:51:34.125Z,9.13
2019-01-26T19:54:03.637Z,9.30
2019-01-26T19:56:33.825Z,9.63
2019-01-26T19:59:04.981Z,10.40
2019-01-26T20:01:36.570Z,9.35
2019-01-26T20:04:06.020Z,9.95
2019-01-26T20:06:34.772Z,8.80
2019-01-26T20:09:09.237Z,9.07
2019-01-26T20:11:34.291Z,9.18
2019-01-26T20:14:05.471Z,9.35
2019-01-26T20:16:36.522Z,9.05
2019-01-26T20:19:03.317Z,9.23
2019-01-26T20:21:33.820Z,9.50
2019-01-26T20:24:02.726Z,9.02
2019-01-26T20:26:31.448Z,8.63
2019-01-26T20:29:02.040Z,9.40
2019-01-26T20:31:33.665Z,9.45
2019-01-26T20:34:04.402Z,8.30
2019-01-26T20:36:34.104Z,9.23
2019-01-26T20:39:04.422Z,8.55
2019-01-26T20:41:32.543Z,8.80
2019-01-26T20:44:04.147Z,8.90
2019-01-26T20:46:32.847Z,8.15
2019-01-26T20:49:03.531Z,8.75
2019-01-26T20:51:32.276Z,7.53
2019-01-26T20:54:03.123Z,8.35
2019-01-26T20:56:33.308Z,8.43
2019-01-26T20:59:01.431Z,12.13
2019-01-26T21:01:30.585Z,9.70
2019-01-26T21:04:00.538Z,10.48
2019-01-26T21:06:31.196Z,9.27
2019-01-26T21:09:00.402Z,10.13
2019-01-26T21:11:32.345Z,9.75
2019-01-26T21:14:03.326Z,7.70
2019-01-26T21:16:32.488Z,8.82
2019-01-26T21:19:00.851Z,9.00
2019-01-26T21:21:32.666Z,8.30
2019-01-26T21:24:00.849Z,7.25
2019-01-26T21:26:30.626Z,8.55
2019-01-26T21:29:02.102Z,8.57
2019-01-26T21:31:31.092Z,9.10
2019-01-26T21:34:01.466Z,7.00
2019-01-26T21:36:31.808Z,7.05
2019-01-26T21:39:00.168Z,8.27
2019-01-26T21:41:29.691Z,7.95
2019-01-26T21:43:58.418Z,7.50
2019-01-26T21:46:27.035Z,10.15
2019-01-26T21:48:56.318Z,7.62
2019-01-26T21:51:24.447Z,8.10
2019-01-26T21:53:52.710Z,5.45
2019-01-26T21:56:23.156Z,7.43
2019-01-26T21:58:51.120Z,6.50
2019-01-26T22:01:21.868Z,7.47
2019-01-26T22:03:50.994Z,7.25
2019-01-26T22:06:20.190Z,7.30
2019-01-26T22:08:48.517Z,6.82
2019-01-26T22:11:18.222Z,6.05
2019-01-26T22:13:46.400Z,7.95
2019-01-26T22:16:16.018Z,8.43
2019-01-26T22:18:44.930Z,7.03
2019-01-26T22:21:14.134Z,7.78
2019-01-26T22:23:42.900Z,5.82
2019-01-26T22:26:13.497Z,5.85
2019-01-26T22:28:43.590Z,6.47
2019-01-26T22:31:12.478Z,5.20
2019-01-26T22:33:42.587Z,5.62
2019-01-26T22:36:10.683Z,5.65
2019-01-26T22:38:39.972Z,5.00
2019-01-26T22:41:08.745Z,5.50
2019-01-26T22:43:36.907Z,5.60
2019-01-26T22:46:06.701Z,5.10
2019-01-26T22:48:36.422Z,4.75
2019-01-26T22:51:05.703Z,4.95
2019-01-26T22:53:37.343Z,5.47
2019-01-26T22:56:06.517Z,5.72
2019-01-26T22:58:37.156Z,5.93
2019-01-26T23:01:15.804Z,5.03
2019-01-26T23:03:51.143Z,6.53
2019-01-26T23:06:46.985Z,6.20
2019-01-26T23:09:19.193Z,5.68
2019-01-26T23:12:00.554Z,4.72
2019-01-26T23:14:49.452Z,5.25
2019-01-26T23:17:41.927Z,5.53
2019-01-26T23:20:29.312Z,5.50
2019-01-26T23:23:04.688Z,4.50
2019-01-26T23:25:58.313Z,6.62
2019-01-26T23:28:35.935Z,6.75
2019-01-26T23:31:17.007Z,5.72
2019-01-26T23:33:46.047Z,7.35
2019-01-26T23:36:15.523Z,6.12
2019-01-26T23:38:45.797Z,7.00
2019-01-26T23:41:14.205Z,7.53
2019-01-26T23:43:45.802Z,8.43
2019-01-26T23:46:14.842Z,8.70
2019-01-26T23:48:44.823Z,5.68
2019-01-26T23:51:12.945Z,5.68
2019-01-26T23:53:40.992Z,5.80
2019-01-26T23:56:10.591Z,8.40
2019-01-26T23:58:38.684Z,7.60
